Gorman, South Dakota
Current Conditions -  °F | °C
As of 9:52 PM on Wednesday 26 Nov 2014 (Local Time) from KMBG Reporting Station
Clear Clear  
Wind Chill: -13°   Ceiling: Unl
Heat Index:   Visibility: 10mi
Dew Point: -2°   Wind: 12mph
Humidity: 80%   Direction: 80°E
Pressure: 30.42"   Gusts: NA
Location:  45.0613°N, 100.079°W
Report Text: KMBG 270352Z AUTO 08010KT 10SM CLR M16/M19 A3042 RMK AO2 SLP344 T11611189
Loading
Personal Weather Stations






























Interactive Weather Map New forecast layout! Learn more

10-Day Weather Forecast

Advertisements
Track Severe Weather on mobile